createdAt,value
2023-02-18T00:00:22.102Z,11.60
2023-02-18T00:02:50.915Z,11.60
2023-02-18T00:05:19.303Z,11.50
2023-02-18T00:07:46.058Z,11.50
2023-02-18T00:10:14.771Z,11.50
2023-02-18T00:12:42.292Z,11.40
2023-02-18T00:15:09.749Z,11.50
2023-02-18T00:17:36.977Z,11.70
2023-02-18T00:20:05.216Z,11.60
2023-02-18T00:22:31.859Z,11.50
2023-02-18T00:24:58.582Z,11.60
2023-02-18T00:27:25.235Z,11.60
2023-02-18T00:29:51.869Z,11.50
2023-02-18T05:31:53.051Z,11.50
2023-02-18T05:34:20.059Z,11.50
2023-02-18T05:36:46.702Z,11.30
2023-02-18T05:39:13.455Z,11.50
2023-02-18T05:41:40.243Z,11.60
2023-02-18T05:44:25.469Z,11.70
2023-02-18T05:46:52.102Z,11.50
2023-02-18T05:49:18.727Z,11.70
2023-02-18T05:51:45.403Z,11.70
2023-02-18T05:54:12.621Z,11.50
2023-02-18T05:56:39.428Z,11.60
2023-02-18T05:59:06.088Z,11.70
2023-02-18T06:01:32.919Z,11.70
2023-02-18T06:03:59.546Z,11.50
2023-02-18T06:06:26.313Z,11.40
2023-02-18T06:08:52.977Z,11.50
2023-02-18T06:11:19.647Z,11.40
2023-02-18T06:13:46.408Z,11.50
2023-02-18T06:16:13.180Z,11.50
2023-02-18T06:18:40.511Z,11.30
2023-02-18T06:21:07.169Z,11.20
2023-02-18T06:23:33.919Z,11.30
2023-02-18T06:26:00.614Z,11.10
2023-02-18T06:28:27.284Z,11.20
2023-02-18T06:30:53.991Z,11.20
2023-02-18T06:33:20.708Z,11.30
2023-02-18T06:36:02.068Z,11.30
2023-02-18T06:38:29.106Z,11.20
2023-02-18T06:40:55.750Z,11.30
2023-02-18T06:43:22.782Z,11.60
2023-02-18T06:45:49.615Z,11.80
2023-02-18T06:48:17.033Z,11.90
2023-02-18T06:50:44.215Z,11.90
2023-02-18T06:53:11.503Z,12.10
2023-02-18T06:55:39.109Z,12.20
2023-02-18T06:58:05.849Z,12.20
2023-02-18T07:00:32.694Z,12.40
2023-02-18T07:02:59.402Z,12.30
2023-02-18T07:05:26.307Z,12.30
2023-02-18T07:07:53.167Z,12.00
2023-02-18T07:10:19.887Z,11.80
2023-02-18T07:12:46.826Z,11.60
2023-02-18T07:15:13.826Z,11.70
2023-02-18T07:17:40.479Z,11.70
2023-02-18T07:20:07.924Z,11.50
2023-02-18T07:22:34.774Z,11.50
2023-02-18T07:25:01.477Z,11.50
2023-02-18T07:27:28.205Z,11.30
2023-02-18T07:29:55.136Z,11.50
2023-02-18T07:32:22.689Z,11.50
2023-02-18T07:34:52.432Z,11.70
2023-02-18T07:37:20.472Z,11.70
2023-02-18T07:39:47.212Z,11.60
2023-02-18T07:42:14.438Z,11.80
2023-02-18T07:44:42.015Z,11.70
2023-02-18T07:47:12.360Z,11.70
2023-02-18T07:49:39.078Z,11.60
2023-02-18T07:52:05.757Z,11.40
2023-02-18T07:54:32.539Z,11.50
2023-02-18T07:56:59.305Z,11.40
2023-02-18T07:59:26.002Z,11.40
2023-02-18T08:01:52.746Z,11.30
2023-02-18T08:04:19.537Z,11.20
2023-02-18T08:06:48.816Z,11.40
2023-02-18T08:09:17.588Z,11.50
2023-02-18T08:11:44.424Z,11.40
2023-02-18T08:14:11.230Z,11.50
2023-02-18T08:16:37.975Z,11.80
2023-02-18T08:19:04.936Z,11.80
2023-02-18T08:21:31.847Z,11.90
2023-02-18T08:23:59.519Z,12.10
2023-02-18T08:26:26.954Z,12.20
2023-02-18T08:28:53.662Z,12.10
2023-02-18T08:31:23.655Z,12.30
2023-02-18T08:33:51.108Z,12.30
2023-02-18T08:36:18.452Z,12.20
2023-02-18T08:38:45.184Z,11.90
2023-02-18T08:41:12.159Z,12.10
2023-02-18T08:43:38.914Z,12.10
2023-02-18T08:46:06.490Z,11.90
2023-02-18T08:48:33.332Z,11.70
2023-02-18T08:51:00.407Z,11.80
2023-02-18T08:53:27.147Z,11.80
2023-02-18T08:55:53.837Z,11.80
2023-02-18T08:58:20.636Z,11.80
2023-02-18T09:00:47.424Z,11.90
2023-02-18T09:03:15.642Z,11.80
2023-02-18T09:05:42.852Z,12.10
2023-02-18T09:08:09.720Z,12.30
2023-02-18T09:10:36.405Z,12.40
2023-02-18T09:13:03.264Z,12.60
2023-02-18T09:15:32.215Z,12.40
2023-02-18T09:17:59.788Z,12.60
2023-02-18T09:20:27.229Z,12.50
2023-02-18T09:22:54.023Z,12.70
2023-02-18T09:25:20.728Z,12.60
2023-02-18T09:27:47.347Z,12.90
2023-02-18T09:30:14.256Z,13.10
2023-02-18T09:32:41.050Z,13.10
2023-02-18T09:35:08.308Z,13.10
2023-02-18T09:37:35.000Z,12.90
2023-02-18T09:40:01.728Z,13.10
2023-02-18T09:42:33.055Z,13.30
2023-02-18T09:45:05.484Z,13.00
2023-02-18T09:47:41.872Z,13.00
2023-02-18T09:50:13.148Z,13.00
2023-02-18T09:52:40.129Z,12.90
2023-02-18T09:55:21.754Z,12.90
2023-02-18T09:57:52.148Z,12.80
2023-02-18T10:00:28.648Z,12.80
2023-02-18T10:03:00.412Z,13.10
2023-02-18T10:05:29.390Z,13.10
2023-02-18T10:08:06.208Z,12.80
2023-02-18T10:10:45.141Z,12.80
2023-02-18T10:13:24.704Z,12.80
2023-02-18T10:15:51.751Z,13.10
2023-02-18T10:18:27.462Z,13.20
2023-02-18T10:21:01.148Z,13.10
2023-02-18T10:23:31.300Z,13.20
2023-02-18T10:25:59.352Z,13.40
2023-02-18T10:28:27.719Z,13.60
2023-02-18T10:31:00.827Z,13.60
2023-02-18T10:33:30.603Z,13.30
2023-02-18T10:36:23.736Z,13.20
2023-02-18T10:39:21.513Z,13.40
2023-02-18T10:42:07.294Z,13.70
2023-02-18T10:44:37.163Z,13.80
2023-02-18T10:47:41.584Z,13.70
2023-02-18T10:50:17.473Z,13.80
2023-02-18T10:52:48.149Z,13.90
2023-02-18T10:55:18.658Z,14.20
2023-02-18T10:57:54.057Z,14.60
2023-02-18T11:00:27.112Z,14.60
2023-02-18T11:03:13.284Z,14.40
2023-02-18T11:05:40.880Z,14.30
2023-02-18T11:08:20.191Z,14.20
2023-02-18T11:10:48.325Z,14.30
2023-02-18T11:13:18.356Z,14.30
2023-02-18T11:15:58.201Z,14.20
2023-02-18T11:18:54.583Z,14.10
2023-02-18T11:21:31.948Z,14.10
2023-02-18T11:24:09.063Z,14.30
2023-02-18T11:26:38.508Z,14.10
2023-02-18T11:29:25.231Z,14.20
2023-02-18T11:31:55.757Z,14.10
2023-02-18T11:34:32.741Z,14.00
2023-02-18T11:37:12.038Z,13.90
2023-02-18T11:39:44.055Z,13.80
2023-02-18T11:42:15.091Z,13.70
2023-02-18T11:44:49.192Z,13.70
2023-02-18T11:47:15.872Z,13.70
2023-02-18T11:49:44.326Z,13.90
2023-02-18T11:52:32.660Z,13.90
2023-02-18T11:55:03.643Z,13.90
2023-02-18T11:57:31.575Z,13.90
2023-02-18T12:00:00.746Z,13.90
2023-02-18T12:02:36.102Z,13.90
2023-02-18T12:05:14.506Z,14.10
2023-02-18T12:07:47.169Z,14.10
2023-02-18T12:10:36.685Z,14.10
2023-02-18T12:13:25.234Z,14.00
2023-02-18T12:16:00.731Z,14.00
2023-02-18T12:18:52.279Z,13.90
2023-02-18T12:21:43.131Z,14.00
2023-02-18T12:24:33.869Z,14.20
2023-02-18T12:27:15.519Z,14.20
2023-02-18T12:30:34.415Z,14.10
2023-02-18T12:33:06.851Z,14.20
2023-02-18T12:35:55.973Z,14.10
2023-02-18T12:38:45.533Z,14.20
2023-02-18T12:41:38.677Z,14.30
2023-02-18T12:44:05.311Z,14.20
2023-02-18T12:47:02.549Z,14.30
2023-02-18T12:50:00.243Z,14.40
2023-02-18T12:53:04.705Z,14.50
2023-02-18T12:55:34.110Z,14.60
2023-02-18T12:58:24.883Z,14.50
2023-02-18T13:00:54.313Z,14.70
2023-02-18T13:03:55.350Z,14.80
2023-02-18T13:06:59.751Z,15.00
2023-02-18T13:09:57.926Z,15.00
2023-02-18T13:12:35.935Z,15.00
2023-02-18T13:15:13.774Z,15.00
2023-02-18T13:17:42.957Z,15.00
2023-02-18T13:20:35.487Z,15.30
2023-02-18T13:23:03.427Z,15.40
2023-02-18T13:25:37.371Z,15.30
2023-02-18T13:28:40.347Z,15.30
2023-02-18T13:31:25.845Z,15.30
2023-02-18T13:34:18.149Z,15.20
2023-02-18T13:37:32.348Z,15.20
2023-02-18T13:40:00.560Z,15.30
2023-02-18T13:42:33.833Z,15.30
2023-02-18T13:45:00.382Z,15.40
2023-02-18T13:47:41.595Z,15.30
2023-02-18T13:50:23.510Z,15.20
2023-02-18T13:53:12.947Z,15.30
2023-02-18T13:56:09.484Z,15.40
2023-02-18T13:58:48.908Z,15.50
2023-02-18T14:01:30.321Z,15.80
2023-02-18T14:03:58.910Z,16.10
2023-02-18T14:06:28.620Z,15.90
2023-02-18T14:09:24.387Z,15.90
2023-02-18T14:12:15.091Z,15.80
2023-02-18T14:14:42.084Z,15.80
2023-02-18T14:17:20.741Z,15.80
2023-02-18T14:19:59.547Z,15.50
2023-02-18T14:22:28.651Z,15.40
2023-02-18T14:25:10.877Z,15.60
2023-02-18T14:27:39.637Z,15.60
2023-02-18T14:30:17.856Z,15.70
2023-02-18T14:32:46.192Z,15.60
2023-02-18T14:35:38.356Z,15.40
2023-02-18T14:38:20.269Z,15.50
2023-02-18T14:41:11.498Z,15.50
2023-02-18T14:44:06.700Z,15.50
2023-02-18T14:46:46.462Z,15.50
2023-02-18T14:49:32.604Z,15.30
2023-02-18T14:51:59.738Z,15.30
2023-02-18T14:54:28.966Z,15.30
2023-02-18T14:57:09.174Z,15.00
2023-02-18T14:59:42.180Z,14.80
2023-02-18T15:02:24.619Z,14.80
2023-02-18T15:04:51.319Z,14.70
2023-02-18T15:07:22.411Z,14.90
2023-02-18T15:09:53.833Z,14.90
2023-02-18T15:12:25.634Z,15.00
2023-02-18T15:14:55.861Z,15.30
2023-02-18T15:17:27.449Z,15.40
2023-02-18T15:20:05.136Z,15.30
2023-02-18T15:22:33.983Z,15.30
2023-02-18T15:25:01.439Z,15.30
2023-02-18T15:27:32.772Z,15.10
2023-02-18T15:30:23.046Z,15.20
2023-02-18T15:32:57.504Z,15.10
2023-02-18T15:35:29.663Z,14.90
2023-02-18T15:37:59.055Z,15.10
2023-02-18T15:40:35.288Z,14.90
2023-02-18T15:43:04.650Z,15.00
2023-02-18T15:45:35.052Z,15.00
2023-02-18T15:48:02.482Z,14.80
2023-02-18T15:50:36.111Z,14.60
2023-02-18T15:53:08.848Z,14.40
2023-02-18T15:55:38.587Z,14.40
2023-02-18T15:58:11.402Z,14.30
2023-02-18T16:00:48.087Z,14.40
2023-02-18T16:03:31.490Z,14.50
2023-02-18T16:06:19.789Z,14.30
2023-02-18T16:09:02.686Z,14.40
2023-02-18T16:11:35.978Z,14.40
2023-02-18T16:14:02.828Z,14.50
2023-02-18T16:16:33.486Z,14.30
2023-02-18T16:19:01.293Z,14.30
2023-02-18T16:21:38.836Z,14.10
2023-02-18T16:24:29.359Z,14.00
2023-02-18T16:26:59.503Z,13.80
2023-02-18T16:29:32.960Z,13.70
2023-02-18T16:31:59.640Z,13.80
2023-02-18T16:34:27.616Z,13.70
2023-02-18T16:37:13.415Z,13.60
2023-02-18T16:39:40.107Z,13.40
2023-02-18T16:42:11.351Z,13.50
2023-02-18T16:44:38.729Z,13.40
2023-02-18T16:47:06.097Z,13.40
2023-02-18T16:49:34.237Z,13.20
2023-02-18T16:52:05.989Z,13.20
2023-02-18T16:54:32.660Z,13.20
2023-02-18T16:56:59.245Z,13.10
2023-02-18T16:59:26.096Z,13.00
2023-02-18T17:01:52.724Z,13.10
2023-02-18T17:04:20.023Z,13.10
2023-02-18T17:06:47.013Z,12.80
2023-02-18T17:09:21.217Z,12.80
2023-02-18T17:11:53.708Z,12.70
2023-02-18T17:14:22.522Z,12.80
2023-02-18T17:16:52.221Z,12.80
2023-02-18T17:19:18.906Z,12.70
2023-02-18T17:21:48.259Z,12.70
2023-02-18T17:24:17.294Z,12.60
2023-02-18T17:26:44.441Z,12.60
2023-02-18T17:29:11.095Z,12.70
2023-02-18T17:31:41.843Z,12.60
2023-02-18T17:34:12.264Z,12.60
2023-02-18T17:36:45.217Z,12.60
2023-02-18T17:39:14.914Z,12.60
2023-02-18T17:41:42.266Z,12.60
2023-02-18T17:44:20.750Z,12.60
2023-02-18T17:46:49.729Z,12.70
2023-02-18T17:49:16.736Z,12.60
2023-02-18T17:51:43.524Z,12.50
2023-02-18T17:54:16.797Z,12.50
2023-02-18T17:56:44.295Z,12.50
2023-02-18T17:59:11.352Z,12.50
2023-02-18T18:01:38.563Z,12.40
2023-02-18T18:04:11.679Z,12.30
2023-02-18T18:06:38.359Z,12.40
2023-02-18T18:09:05.128Z,12.40
2023-02-18T18:11:32.804Z,12.50
2023-02-18T18:13:59.701Z,12.50
2023-02-18T18:16:26.659Z,12.50
2023-02-18T18:18:53.307Z,12.60
2023-02-18T18:21:38.384Z,12.60
2023-02-18T18:24:05.217Z,12.60
2023-02-18T18:26:31.874Z,12.70
2023-02-18T18:28:58.546Z,12.70
2023-02-18T18:31:25.432Z,12.80
2023-02-18T18:33:53.462Z,12.90
2023-02-18T18:36:21.895Z,13.10
2023-02-18T18:38:49.083Z,13.00
2023-02-18T18:41:18.144Z,12.90
2023-02-18T18:43:45.184Z,12.90
2023-02-18T18:46:11.948Z,13.00
2023-02-18T18:48:38.832Z,13.00
2023-02-18T18:51:06.125Z,13.10
2023-02-18T18:53:34.543Z,13.00
2023-02-18T18:56:04.983Z,12.60
2023-02-18T18:58:31.915Z,12.60
2023-02-18T19:01:02.011Z,12.80
2023-02-18T19:03:30.416Z,12.60
2023-02-18T19:05:57.925Z,12.70
2023-02-18T19:08:25.089Z,12.80
2023-02-18T19:10:56.736Z,13.00
2023-02-18T19:13:31.664Z,13.00
2023-02-18T19:16:14.837Z,13.00
2023-02-18T19:18:41.490Z,12.90
2023-02-18T19:21:08.528Z,13.00
2023-02-18T19:23:36.616Z,13.00
2023-02-18T19:26:03.794Z,12.90
2023-02-18T19:28:30.506Z,12.80
2023-02-18T19:30:57.621Z,12.80
2023-02-18T19:33:24.290Z,12.70
2023-02-18T19:35:50.951Z,12.70
2023-02-18T19:38:19.302Z,12.60
2023-02-18T19:40:46.629Z,12.50
2023-02-18T19:43:13.837Z,12.40
2023-02-18T19:45:43.102Z,12.20
2023-02-18T19:48:10.468Z,12.00
2023-02-18T19:50:37.183Z,11.80
2023-02-18T19:53:03.878Z,11.80
2023-02-18T19:55:30.499Z,11.70
2023-02-18T19:57:57.103Z,11.60
2023-02-18T20:00:23.790Z,11.60
2023-02-18T20:02:50.609Z,11.60
2023-02-18T20:05:18.323Z,11.40
2023-02-18T20:07:47.713Z,11.40
2023-02-18T20:10:19.836Z,11.40
2023-02-18T20:12:50.732Z,11.40
2023-02-18T20:15:17.322Z,11.40
2023-02-18T20:17:43.913Z,11.20
2023-02-18T20:20:10.707Z,11.10
2023-02-18T20:22:37.397Z,11.10
2023-02-18T20:25:04.237Z,11.00
2023-02-18T20:27:31.821Z,11.00
2023-02-18T20:29:58.424Z,10.90
2023-02-18T20:32:25.102Z,10.70
2023-02-18T20:34:51.712Z,10.80
2023-02-18T20:37:18.297Z,10.90
2023-02-18T20:39:44.921Z,10.90
2023-02-18T20:42:16.785Z,11.00
2023-02-18T20:44:49.235Z,11.10
2023-02-18T20:47:15.920Z,11.00
2023-02-18T20:49:42.741Z,11.10
2023-02-18T20:52:10.410Z,11.00
2023-02-18T20:54:37.020Z,11.10
2023-02-18T20:57:03.803Z,11.20
2023-02-18T20:59:32.806Z,11.20
2023-02-18T21:01:59.826Z,11.30
2023-02-18T21:04:26.531Z,11.30
2023-02-18T21:06:54.208Z,11.00
2023-02-18T21:09:21.399Z,11.00
2023-02-18T21:11:48.219Z,10.90
2023-02-18T21:14:14.902Z,11.00
2023-02-18T21:16:41.756Z,11.00
2023-02-18T21:19:12.631Z,11.00
2023-02-18T21:21:39.338Z,10.90
2023-02-18T21:24:06.781Z,11.00
2023-02-18T21:26:33.639Z,11.00
2023-02-18T21:29:02.186Z,11.10
2023-02-18T21:31:34.619Z,11.10
2023-02-18T21:34:02.113Z,11.10
2023-02-18T21:36:30.947Z,11.10
2023-02-18T21:39:00.485Z,11.00
2023-02-18T21:41:28.310Z,11.00
2023-02-18T21:43:55.181Z,10.90
2023-02-18T21:46:24.707Z,11.00
2023-02-18T21:49:06.893Z,10.90
2023-02-18T21:51:59.025Z,10.90
2023-02-18T21:54:39.613Z,10.90
2023-02-18T21:57:11.427Z,10.90
2023-02-18T21:59:38.607Z,10.80
2023-02-18T22:02:06.652Z,10.80
2023-02-18T22:04:36.032Z,10.80
2023-02-18T22:07:03.394Z,10.80
2023-02-18T22:09:30.229Z,10.80
2023-02-18T22:11:56.862Z,10.70
2023-02-18T22:14:23.607Z,10.70
2023-02-18T22:16:52.219Z,10.70
2023-02-18T22:19:18.936Z,10.70
2023-02-18T22:21:45.906Z,10.60
2023-02-18T22:24:13.960Z,10.60
2023-02-18T22:26:41.283Z,10.50
2023-02-18T22:29:07.940Z,10.50
2023-02-18T22:31:34.736Z,10.40
2023-02-18T22:34:01.618Z,10.30
2023-02-18T22:36:29.080Z,10.30
2023-02-18T22:38:56.088Z,10.30
2023-02-18T22:41:24.499Z,10.20
2023-02-18T22:43:59.637Z,10.10
2023-02-18T22:46:27.189Z,9.90
2023-02-18T22:48:56.331Z,9.80
2023-02-18T22:51:25.541Z,9.80
2023-02-18T22:53:54.037Z,9.90
2023-02-18T22:56:22.299Z,9.70
2023-02-18T22:58:50.718Z,9.60
2023-02-18T23:01:39.385Z,9.70
2023-02-18T23:04:11.767Z,9.70
2023-02-18T23:06:40.222Z,9.70
2023-02-18T23:09:08.623Z,9.70
2023-02-18T23:11:35.343Z,9.90
2023-02-18T23:14:21.223Z,9.90
2023-02-18T23:17:09.657Z,10.10
2023-02-18T23:19:37.652Z,10.30
2023-02-18T23:22:04.876Z,10.10
2023-02-18T23:24:34.101Z,10.20
2023-02-18T23:27:01.136Z,10.20
2023-02-18T23:29:27.822Z,10.20
2023-02-18T23:31:54.556Z,10.40
2023-02-18T23:34:36.346Z,10.50
2023-02-18T23:37:02.969Z,10.60
2023-02-18T23:39:29.732Z,10.60
2023-02-18T23:41:56.740Z,10.80
2023-02-18T23:44:24.620Z,11.10
2023-02-18T23:46:51.865Z,10.90
2023-02-18T23:49:23.990Z,10.90
2023-02-18T23:51:52.512Z,11.00
2023-02-18T23:54:19.360Z,11.10
2023-02-18T23:56:46.164Z,11.10
2023-02-18T23:59:13.385Z,11.00
